Terminal Aerodrome Forecast
Issued by NWS Wilmington, NC

Home | Current Version | Previous Version | Text Only | Print | Product List | Glossary On
Versions: 1 2 3 4 5 6 7 8 9 10 11 12 13 14 15 16 17 18 19 20 21 22 23 24 25 26
000
FTUS42 KILM 230541
TAFFLO
TAF
KFLO 230541Z 2306/2406 19005KT P6SM BKN150
     FM230900 21007KT P6SM BKN008
     FM231200 22008G16KT P6SM FEW008 BKN015
     FM231300 22008G17KT P6SM SCT015 BKN100
     FM231700 22011G18KT P6SM SCT250
     FM240200 20010KT P6SM FEW250=

USA.gov is the U.S. government's official web portal to all federal, state and local government web resources and services.